Startpagina
METAR-TAF:

METAR-TAF

Vliegvelden :

Aeropuerto Internacional de Maiquetía Simón Bolívar

Caracas, Venezuela

breedte: 10-36N, lengte: 066-59W, hoogte: 43 m

Actueel weer

Dit bericht is 42 minuten geleden gemaakt, om 21:02 UTC
Wind 8 kt uit het oostnoordoosten
Temperatuur
Druk 1011 hPa

METAR: SVMI 242102Z AUTO 06008KT NCD ///// Q1011

Tijdstip: 17:44 (21:44 UTC)

Verwachting

Dit bericht is 5 uur en het 44 minuten geleden gemaakt, om 16:00 UTC
Verwachting geldig van 24 om 18 UTC tot 25 om 18 UTC
Wind 10 kt uit het oosten
Zicht 10 km of meer
Weinig wolken op 1600 ft
Wijzigt naar
van 24 om 18 UTC tot 24 om 22 UTC
Wind 9 kt uit het oostnoordoosten
Zicht 10 km of meer
Weinig wolken op 1600 ft
Verspreide wolken op 3000 ft

TAF: SVMI 241600Z 2418/2518 09010KT 9999 FEW016 TX32/18Z TN25/09Z BECMG 2418/2422 06009KT 9999 FEW016 SCT030

Waarnemingen en weersverwachtingen van meer dan 4000 vliegvelden (METAR en TAF).

De beschikbare stations zijn de gele en rode punten op de kaart.

Ga met uw muis naar het station om de naam te zien.

Klik dan om waarnemingen en weersverwachtingen te zien.

kaart wijzigen: klik op de groene knoppen met een zwart kruis om in te zoomen, op de groene knop met een streepje om uit te zoomen of op de groene pijlen voor aangrenzende kaarten.


METAR-TAF: